createdAt,value
2022-10-05T00:02:23.692Z,101705.06
2022-10-05T00:04:47.219Z,101698.25
2022-10-05T00:07:16.913Z,101700.22
2022-10-05T00:09:38.826Z,101695.78
2022-10-05T00:12:20.081Z,101701.00
2022-10-05T00:14:43.115Z,101706.09
2022-10-05T00:17:05.613Z,101699.38
2022-10-05T00:19:34.623Z,101704.59
2022-10-05T00:22:00.095Z,101697.88
2022-10-05T00:24:21.996Z,101693.97
2022-10-05T00:26:44.042Z,101685.63
2022-10-05T00:29:23.164Z,101686.09
2022-10-05T00:31:45.693Z,101686.75
2022-10-05T00:34:07.639Z,101680.41
2022-10-05T00:36:29.471Z,101682.72
2022-10-05T00:38:51.366Z,101678.78
2022-10-05T00:42:10.587Z,101683.53
2022-10-05T00:45:10.666Z,101687.00
2022-10-05T00:47:57.593Z,101681.44
2022-10-05T00:50:37.785Z,101673.94
2022-10-05T00:53:28.405Z,101675.44
2022-10-05T00:56:08.200Z,101683.31
2022-10-05T00:59:12.278Z,101683.97
2022-10-05T01:02:15.371Z,101676.34
2022-10-05T01:04:50.074Z,101678.66
2022-10-05T01:07:25.275Z,101674.28
2022-10-05T01:10:18.061Z,101680.63
2022-10-05T01:13:04.451Z,101672.19
2022-10-05T01:15:55.552Z,101665.47
2022-10-05T01:18:52.699Z,101665.81
2022-10-05T01:21:19.576Z,101662.91
2022-10-05T01:24:12.430Z,101651.81
2022-10-05T01:27:02.496Z,101654.94
2022-10-05T01:29:35.229Z,101654.13
2022-10-05T01:32:18.606Z,101652.50
2022-10-05T01:34:48.982Z,101645.31
2022-10-05T01:37:36.243Z,101638.63
2022-10-05T01:40:39.189Z,101639.78
2022-10-05T01:43:19.559Z,101640.94
2022-10-05T01:45:56.460Z,101639.31
2022-10-05T01:48:42.390Z,101630.97
2022-10-05T01:51:26.976Z,101636.53
2022-10-05T01:54:13.808Z,101629.69
2022-10-05T01:57:05.744Z,101638.50
2022-10-05T01:59:57.578Z,101632.47
2022-10-05T02:02:24.130Z,101624.97
2022-10-05T02:05:02.313Z,101618.25
2022-10-05T02:07:33.480Z,101623.00
2022-10-05T02:10:04.691Z,101616.66
2022-10-05T02:12:34.982Z,101611.53
2022-10-05T02:15:10.732Z,101601.59
2022-10-05T02:17:45.237Z,101606.34
2022-10-05T02:20:14.727Z,101598.38
2022-10-05T02:22:53.146Z,101594.44
2022-10-05T02:25:26.790Z,101596.75
2022-10-05T02:28:18.354Z,101596.75
2022-10-05T02:30:52.736Z,101594.31
2022-10-05T02:33:28.519Z,101582.41
2022-10-05T02:35:52.207Z,101587.16
2022-10-05T02:38:52.378Z,101587.16
2022-10-05T02:41:48.889Z,101576.38
2022-10-05T02:44:40.271Z,101565.28
2022-10-05T02:47:28.321Z,101571.16
2022-10-05T02:50:17.742Z,101572.00
2022-10-05T02:53:23.774Z,101561.72
2022-10-05T02:56:19.035Z,101572.00
2022-10-05T02:59:13.748Z,101559.25
2022-10-05T03:01:55.730Z,101547.34
2022-10-05T03:04:54.637Z,101546.91
2022-10-05T03:07:47.843Z,101542.16
2022-10-05T03:10:30.359Z,101542.03
2022-10-05T03:13:39.698Z,101534.53
2022-10-05T03:16:51.429Z,101531.28
2022-10-05T03:19:40.847Z,101532.13
2022-10-05T03:22:50.239Z,101535.22
2022-10-05T03:25:51.017Z,101538.34
2022-10-05T03:28:27.218Z,101530.38
2022-10-05T03:31:23.685Z,101539.03
2022-10-05T03:33:51.926Z,101539.03
2022-10-05T03:36:29.719Z,101552.91
2022-10-05T03:39:19.216Z,101541.00
2022-10-05T03:41:55.027Z,101548.06
2022-10-05T03:44:33.288Z,101551.63
2022-10-05T03:47:10.396Z,101539.38
2022-10-05T03:49:57.065Z,101539.38
2022-10-05T03:52:44.284Z,101547.34
2022-10-05T03:55:39.365Z,101538.56
2022-10-05T03:58:20.031Z,101535.47
2022-10-05T04:00:47.570Z,101531.19
2022-10-05T04:03:23.679Z,101538.81
2022-10-05T04:05:54.945Z,101533.59
2022-10-05T04:08:47.765Z,101538.00
2022-10-05T04:11:26.483Z,101533.25
2022-10-05T04:13:56.206Z,101528.50
2022-10-05T04:16:29.676Z,101534.88
2022-10-05T04:19:10.602Z,101536.84
2022-10-05T04:21:51.695Z,101532.91
2022-10-05T04:24:18.845Z,101536.84
2022-10-05T04:27:10.951Z,101531.28
2022-10-05T04:29:51.617Z,101532.44
2022-10-05T04:32:35.317Z,101534.41
2022-10-05T04:35:24.943Z,101534.75
2022-10-05T04:38:11.765Z,101530.81
2022-10-05T04:41:10.863Z,101525.25
2022-10-05T04:44:05.763Z,101525.97
2022-10-05T04:47:08.606Z,101517.88
2022-10-05T04:50:04.350Z,101520.19
2022-10-05T04:53:03.481Z,101521.22
2022-10-05T04:55:53.175Z,101517.63
2022-10-05T04:59:04.056Z,101519.59
2022-10-05T05:02:03.299Z,101513.59
2022-10-05T05:04:52.291Z,101513.91
2022-10-05T05:07:36.510Z,101513.47
2022-10-05T05:10:07.646Z,101519.03
2022-10-05T05:12:57.259Z,101502.38
2022-10-05T05:15:46.599Z,101513.91
2022-10-05T05:18:42.307Z,101508.38
2022-10-05T05:21:29.866Z,101515.09
2022-10-05T05:24:18.580Z,101512.31
2022-10-05T05:27:01.306Z,101503.06
2022-10-05T05:29:58.231Z,101509.06
2022-10-05T05:32:29.594Z,101505.16
2022-10-05T05:35:05.854Z,101508.75
2022-10-05T05:38:00.314Z,101505.16
2022-10-05T05:40:39.592Z,101508.97
2022-10-05T05:43:22.255Z,101502.25
2022-10-05T05:46:15.276Z,101508.59
2022-10-05T05:48:42.382Z,101501.44
2022-10-05T05:51:18.031Z,101495.56
2022-10-05T05:53:46.074Z,101504.22
2022-10-05T05:56:13.578Z,101497.50
2022-10-05T05:59:02.406Z,101489.19
2022-10-05T06:01:33.730Z,101494.28
2022-10-05T06:04:17.451Z,101499.84
2022-10-05T06:06:48.886Z,101494.28
2022-10-05T06:09:37.930Z,101493.13
2022-10-05T06:12:28.057Z,101489.56
2022-10-05T06:15:23.578Z,101497.50
2022-10-05T06:17:52.778Z,101492.78
2022-10-05T06:21:15.308Z,101496.38
2022-10-05T06:23:58.582Z,101494.41
2022-10-05T06:27:08.141Z,101494.06
2022-10-05T06:30:17.474Z,101506.75
2022-10-05T06:33:01.145Z,101501.22
2022-10-05T06:35:47.837Z,101502.50
2022-10-05T06:38:41.787Z,101502.97
2022-10-05T06:42:00.659Z,101500.28
2022-10-05T06:44:59.385Z,101499.16
2022-10-05T06:47:50.114Z,101505.50
2022-10-05T06:50:53.407Z,101497.97
2022-10-05T06:54:24.031Z,101493.38
2022-10-05T06:57:24.183Z,101490.34
2022-10-05T07:00:03.219Z,101492.44
2022-10-05T07:02:48.358Z,101502.84
2022-10-05T07:05:41.382Z,101496.59
2022-10-05T07:08:18.225Z,101492.78
2022-10-05T07:11:18.799Z,101495.66
2022-10-05T07:14:12.399Z,101492.19
2022-10-05T07:16:52.704Z,101490.78
2022-10-05T07:19:28.927Z,101497.28
2022-10-05T07:22:31.710Z,101498.53
2022-10-05T07:25:20.499Z,101500.47
2022-10-05T07:27:55.784Z,101503.72
2022-10-05T07:30:19.002Z,101500.28
2022-10-05T07:33:12.151Z,101512.75
2022-10-05T07:36:27.836Z,101517.59
2022-10-05T07:39:55.354Z,101504.16
2022-10-05T07:42:50.580Z,101510.66
2022-10-05T07:45:51.276Z,101506.91
2022-10-05T07:48:33.105Z,101505.06
2022-10-05T07:51:27.339Z,101503.19
2022-10-05T07:54:22.248Z,101508.16
2022-10-05T07:56:53.078Z,101516.25
2022-10-05T07:59:34.184Z,101517.28
2022-10-05T08:02:14.041Z,101510.31
2022-10-05T08:05:10.289Z,101510.44
2022-10-05T08:07:35.979Z,101508.91
2022-10-05T08:10:47.321Z,101514.66
2022-10-05T08:13:37.516Z,101506.06
2022-10-05T08:16:10.117Z,101501.78
2022-10-05T08:19:02.254Z,101497.94
2022-10-05T08:21:34.284Z,101496.03
2022-10-05T08:24:39.144Z,101500.97
2022-10-05T08:27:24.495Z,101490.84
2022-10-05T08:30:07.947Z,101488.19
2022-10-05T08:32:40.383Z,101483.16
2022-10-05T08:35:37.724Z,101480.63
2022-10-05T08:38:04.779Z,101483.53
2022-10-05T08:40:59.262Z,101482.53
2022-10-05T08:43:55.107Z,101472.03
2022-10-05T08:46:50.799Z,101473.75
2022-10-05T08:49:18.593Z,101468.25
2022-10-05T08:52:20.746Z,101469.16
2022-10-05T08:54:50.209Z,101464.09
2022-10-05T08:57:46.628Z,101466.38
2022-10-05T09:00:23.527Z,101473.69
2022-10-05T09:03:25.678Z,101471.88
2022-10-05T09:07:04.870Z,101466.91
2022-10-05T09:10:01.423Z,101464.56
2022-10-05T09:12:56.910Z,101463.91
2022-10-05T09:16:06.418Z,101454.44
2022-10-05T09:19:27.869Z,101459.03
2022-10-05T09:22:43.184Z,101454.75
2022-10-05T09:25:37.653Z,101448.97
2022-10-05T09:28:08.366Z,101451.03
2022-10-05T09:31:10.132Z,101450.38
2022-10-05T09:33:45.631Z,101453.63
2022-10-05T09:36:24.334Z,101452.13
2022-10-05T09:39:10.827Z,101456.25
2022-10-05T09:41:52.115Z,101449.19
2022-10-05T09:44:42.638Z,101447.72
2022-10-05T09:47:29.314Z,101441.84
2022-10-05T09:50:28.074Z,101441.59
2022-10-05T09:53:25.673Z,101443.69
2022-10-05T09:56:05.887Z,101433.41
2022-10-05T09:58:47.451Z,101425.53
2022-10-05T10:01:56.093Z,101428.38
2022-10-05T10:04:53.581Z,101426.84
2022-10-05T10:07:42.928Z,101428.44
2022-10-05T10:11:01.892Z,101416.94
2022-10-05T10:13:55.760Z,101418.53
2022-10-05T10:16:35.866Z,101409.41
2022-10-05T10:19:48.603Z,101401.91
2022-10-05T10:22:31.062Z,101400.34
2022-10-05T10:25:25.279Z,101392.88
2022-10-05T10:28:05.825Z,101392.13
2022-10-05T10:31:01.772Z,101387.41
2022-10-05T10:33:58.955Z,101391.94
2022-10-05T10:36:58.569Z,101383.28
2022-10-05T10:39:45.227Z,101382.97
2022-10-05T10:42:37.472Z,101379.16
2022-10-05T10:45:22.837Z,101374.59
2022-10-05T10:47:44.608Z,101368.38
2022-10-05T10:51:18.524Z,101370.56
2022-10-05T10:54:23.490Z,101373.09
2022-10-05T10:57:30.644Z,101364.88
2022-10-05T11:00:29.120Z,101357.75
2022-10-05T11:02:57.121Z,101357.00
2022-10-05T11:05:52.997Z,101352.28
2022-10-05T11:08:39.121Z,101353.88
2022-10-05T11:11:26.977Z,101351.88
2022-10-05T11:14:54.432Z,101345.53
2022-10-05T11:17:44.833Z,101350.75
2022-10-05T11:20:28.651Z,101347.63
2022-10-05T11:23:38.630Z,101330.88
2022-10-05T11:26:28.151Z,101326.97
2022-10-05T11:29:34.348Z,101336.22
2022-10-05T11:32:43.970Z,101318.34
2022-10-05T11:35:14.771Z,101325.53
2022-10-05T11:38:14.407Z,101310.78
2022-10-05T11:41:22.419Z,101315.91
2022-10-05T11:44:35.441Z,101309.94
2022-10-05T11:47:11.170Z,101314.69
2022-10-05T11:49:44.448Z,101289.63
2022-10-05T11:52:23.266Z,101303.97
2022-10-05T11:55:23.409Z,101292.03
2022-10-05T11:58:01.684Z,101288.84
2022-10-05T12:00:36.158Z,101286.09
2022-10-05T12:03:20.472Z,101273.75
2022-10-05T12:05:56.935Z,101259.78
2022-10-05T12:08:51.915Z,101273.41
2022-10-05T12:11:47.477Z,101264.22
2022-10-05T12:14:39.760Z,101261.84
2022-10-05T12:17:25.125Z,101247.44
2022-10-05T12:20:02.898Z,101241.84
2022-10-05T12:22:44.774Z,101237.88
2022-10-05T12:25:33.313Z,101231.50
2022-10-05T12:28:09.688Z,101214.69
2022-10-05T12:30:34.537Z,101225.91
2022-10-05T12:33:31.116Z,101221.91
2022-10-05T12:36:17.821Z,101219.13
2022-10-05T12:39:23.402Z,101213.09
2022-10-05T12:42:18.542Z,101213.06
2022-10-05T12:45:08.371Z,101207.84
2022-10-05T12:48:04.047Z,101214.69
2022-10-05T12:50:46.476Z,101211.88
2022-10-05T12:53:56.237Z,101215.06
2022-10-05T12:57:08.259Z,101208.25
2022-10-05T13:00:11.194Z,101208.25
2022-10-05T13:02:57.440Z,101219.06
2022-10-05T13:05:52.559Z,101209.84
2022-10-05T13:08:46.210Z,101208.25
2022-10-05T13:11:23.754Z,101205.84
2022-10-05T13:14:14.319Z,101215.44
2022-10-05T13:17:06.906Z,101203.84
2022-10-05T13:19:40.482Z,101214.66
2022-10-05T13:22:15.764Z,101213.88
2022-10-05T13:25:28.584Z,101211.84
2022-10-05T13:28:02.542Z,101203.00
2022-10-05T13:30:24.843Z,101202.59
2022-10-05T13:33:00.069Z,101207.00
2022-10-05T13:35:40.284Z,101201.38
2022-10-05T13:38:17.200Z,101203.75
2022-10-05T13:41:21.846Z,101206.63
2022-10-05T13:44:22.547Z,101210.66
2022-10-05T13:46:47.140Z,101208.25
2022-10-05T13:49:29.529Z,101209.84
2022-10-05T13:52:21.999Z,101207.03
2022-10-05T13:55:15.306Z,101214.25
2022-10-05T13:58:14.243Z,101216.25
2022-10-05T14:00:58.469Z,101215.50
2022-10-05T14:03:39.119Z,101216.28
2022-10-05T14:06:12.254Z,101218.69
2022-10-05T14:08:51.719Z,101213.88
2022-10-05T14:11:36.084Z,101220.31
2022-10-05T14:14:28.231Z,101214.69
2022-10-05T14:16:55.551Z,101212.69
2022-10-05T14:19:27.982Z,101215.91
2022-10-05T14:21:54.816Z,101215.50
2022-10-05T14:24:45.172Z,101221.50
2022-10-05T14:27:29.095Z,101224.31
2022-10-05T14:30:12.278Z,101225.94
2022-10-05T14:32:59.532Z,101221.94
2022-10-05T14:35:25.388Z,101215.50
2022-10-05T14:38:02.904Z,101216.69
2022-10-05T14:40:37.073Z,101215.91
2022-10-05T14:43:15.528Z,101215.13
2022-10-05T14:45:57.752Z,101220.72
2022-10-05T14:48:19.835Z,101218.28
2022-10-05T14:51:04.606Z,101227.13
2022-10-05T14:53:40.878Z,101216.69
2022-10-05T14:56:27.195Z,101218.72
2022-10-05T14:59:23.112Z,101228.69
2022-10-05T15:02:10.937Z,101230.69
2022-10-05T15:04:44.363Z,101229.84
2022-10-05T15:07:41.020Z,101249.84
2022-10-05T15:10:26.854Z,101249.00
2022-10-05T15:12:48.912Z,101263.00
2022-10-05T15:15:34.551Z,101266.59
2022-10-05T15:18:17.431Z,101285.78
2022-10-05T15:20:59.547Z,101286.97
2022-10-05T15:23:48.992Z,101291.75
2022-10-05T15:26:25.834Z,101313.22
2022-10-05T15:29:21.960Z,101333.06
2022-10-05T15:32:15.303Z,101335.69
2022-10-05T15:35:26.418Z,101347.53
2022-10-05T15:38:00.231Z,101351.78
2022-10-05T15:40:39.667Z,101367.63
2022-10-05T15:43:12.732Z,101364.81
2022-10-05T15:45:43.184Z,101375.81
2022-10-05T15:48:42.331Z,101370.81
2022-10-05T15:51:49.489Z,101372.19
2022-10-05T15:54:49.818Z,101364.00
2022-10-05T15:57:39.870Z,101370.66
2022-10-05T16:00:22.050Z,101361.34
2022-10-05T16:03:08.853Z,101349.28
2022-10-05T16:05:55.072Z,101349.19
2022-10-05T16:08:51.217Z,101356.34
2022-10-05T16:11:45.718Z,101361.44
2022-10-05T16:14:13.258Z,101362.53
2022-10-05T16:17:33.705Z,101365.66
2022-10-05T16:20:25.173Z,101372.00
2022-10-05T16:23:08.459Z,101366.00
2022-10-05T16:26:02.630Z,101367.19
2022-10-05T16:29:00.076Z,101369.53
2022-10-05T16:31:47.086Z,101359.94
2022-10-05T16:34:41.011Z,101371.84
2022-10-05T16:37:26.042Z,101371.41
2022-10-05T16:40:11.025Z,101390.06
2022-10-05T16:43:01.251Z,101387.72
2022-10-05T16:46:01.801Z,101389.28
2022-10-05T16:48:47.285Z,101392.41
2022-10-05T16:51:09.136Z,101398.00
2022-10-05T16:53:59.672Z,101398.00
2022-10-05T16:56:30.468Z,101395.22
2022-10-05T16:59:49.828Z,101404.78
2022-10-05T17:03:01.087Z,101402.72
2022-10-05T17:05:30.373Z,101401.06
2022-10-05T17:08:10.330Z,101396.28
2022-10-05T17:10:57.682Z,101397.47
2022-10-05T17:13:37.474Z,101400.25
2022-10-05T17:16:46.696Z,101400.31
2022-10-05T17:19:40.778Z,101407.44
2022-10-05T17:22:26.949Z,101413.00
2022-10-05T17:25:18.304Z,101410.66
2022-10-05T17:28:15.059Z,101415.44
2022-10-05T17:31:25.766Z,101415.44
2022-10-05T17:33:59.692Z,101429.75
2022-10-05T17:36:21.574Z,101427.41
2022-10-05T17:39:21.650Z,101423.06
2022-10-05T17:41:44.858Z,101433.41
2022-10-05T17:44:20.580Z,101436.66
2022-10-05T17:46:47.628Z,101438.25
2022-10-05T17:49:40.302Z,101449.47
2022-10-05T17:52:39.194Z,101439.47
2022-10-05T17:55:28.204Z,101450.28
2022-10-05T17:57:50.130Z,101439.94
2022-10-05T18:00:32.565Z,101445.94
2022-10-05T18:02:58.301Z,101449.09
2022-10-05T18:05:29.449Z,101457.09
2022-10-05T18:08:13.122Z,101463.47
2022-10-05T18:10:39.082Z,101461.84
2022-10-05T18:13:34.931Z,101452.75
2022-10-05T18:15:56.780Z,101454.69
2022-10-05T18:18:42.968Z,101444.75
2022-10-05T18:21:14.222Z,101451.97
2022-10-05T18:23:37.496Z,101448.34
2022-10-05T18:26:23.988Z,101464.38
2022-10-05T18:29:40.990Z,101456.41
2022-10-05T18:32:25.046Z,101460.38
2022-10-05T18:35:11.313Z,101454.81
2022-10-05T18:37:57.931Z,101465.97
2022-10-05T18:40:34.656Z,101473.91
2022-10-05T18:43:38.874Z,101469.94
2022-10-05T18:46:10.973Z,101463.16
2022-10-05T18:49:10.689Z,101460.03
2022-10-05T18:51:55.742Z,101469.19
2022-10-05T18:55:04.025Z,101474.78
2022-10-05T18:57:45.093Z,101479.56
2022-10-05T19:00:22.952Z,101465.97
2022-10-05T19:02:51.317Z,101481.50
2022-10-05T19:05:48.784Z,101481.22
2022-10-05T19:08:17.584Z,101476.81
2022-10-05T19:10:50.797Z,101483.19
2022-10-05T19:13:27.908Z,101492.81
2022-10-05T19:16:22.640Z,101486.06
2022-10-05T19:19:29.336Z,101493.63
2022-10-05T19:22:16.556Z,101503.16
2022-10-05T19:25:04.390Z,101496.03
2022-10-05T19:28:07.575Z,101502.06
2022-10-05T19:31:01.765Z,101501.69
2022-10-05T19:33:37.611Z,101510.88
2022-10-05T19:36:23.972Z,101514.09
2022-10-05T19:39:12.121Z,101506.16
2022-10-05T19:41:59.258Z,101511.75
2022-10-05T19:44:42.139Z,101503.78
2022-10-05T19:47:48.699Z,101523.75
2022-10-05T19:50:33.618Z,101508.25
2022-10-05T19:53:02.417Z,101525.38
2022-10-05T19:55:34.569Z,101530.56
2022-10-05T19:58:02.516Z,101537.41
2022-10-05T20:00:35.403Z,101554.16
2022-10-05T20:03:23.419Z,101549.81
2022-10-05T20:05:46.055Z,101580.81
2022-10-05T20:08:17.096Z,101576.34
2022-10-05T20:10:39.290Z,101580.19
2022-10-05T20:13:04.789Z,101591.97
2022-10-05T20:15:50.197Z,101597.84
2022-10-05T20:19:02.636Z,101604.44
2022-10-05T20:21:52.091Z,101599.13
2022-10-05T20:24:25.889Z,101601.38
2022-10-05T20:27:09.516Z,101605.63
2022-10-05T20:29:41.483Z,101600.25
2022-10-05T20:32:08.102Z,101598.16
2022-10-05T20:34:31.771Z,101616.31
2022-10-05T20:36:53.552Z,101610.69
2022-10-05T20:39:16.968Z,101628.50
2022-10-05T20:41:38.792Z,101622.47
2022-10-05T20:44:00.512Z,101643.97
2022-10-05T20:46:23.120Z,101640.38
2022-10-05T20:48:45.789Z,101644.31
2022-10-05T20:51:07.661Z,101639.53
2022-10-05T20:53:29.420Z,101662.69
2022-10-05T20:55:51.233Z,101672.97
2022-10-05T20:58:12.971Z,101679.41
2022-10-05T21:01:00.723Z,101693.34
2022-10-05T21:03:22.842Z,101686.13
2022-10-05T21:05:46.051Z,101690.19
2022-10-05T21:08:08.276Z,101691.38
2022-10-05T21:10:30.075Z,101698.06
2022-10-05T21:12:52.010Z,101698.94
2022-10-05T21:15:13.883Z,101700.41
2022-10-05T21:17:36.375Z,101705.56
2022-10-05T21:19:58.239Z,101712.28
2022-10-05T21:22:19.963Z,101715.88
2022-10-05T21:24:41.897Z,101728.66
2022-10-05T21:27:05.491Z,101731.00
2022-10-05T21:29:27.921Z,101748.06
2022-10-05T21:31:49.791Z,101752.50
2022-10-05T21:34:11.725Z,101757.16
2022-10-05T21:36:33.652Z,101759.59
2022-10-05T21:38:56.541Z,101751.22
2022-10-05T21:41:19.521Z,101761.94
2022-10-05T21:43:42.368Z,101772.63
2022-10-05T21:46:04.386Z,101787.16
2022-10-05T21:48:26.710Z,101793.66
2022-10-05T21:50:48.898Z,101799.72
2022-10-05T21:53:14.926Z,101809.88
2022-10-05T21:55:41.398Z,101810.28
2022-10-05T21:58:03.735Z,101815.47
2022-10-05T22:00:25.692Z,101821.06
2022-10-05T22:02:48.271Z,101824.78
2022-10-05T22:05:10.187Z,101832.88
2022-10-05T22:07:32.045Z,101831.63
2022-10-05T22:09:53.821Z,101842.19
2022-10-05T22:12:16.634Z,101846.81
2022-10-05T22:14:38.423Z,101847.06
2022-10-05T22:17:00.686Z,101838.63
2022-10-05T22:19:22.534Z,101848.34
2022-10-05T22:21:44.311Z,101857.41
2022-10-05T22:24:07.891Z,101865.28
2022-10-05T22:26:30.376Z,101867.59
2022-10-05T22:28:56.608Z,101873.06
2022-10-05T22:31:19.330Z,101875.38
2022-10-05T22:33:41.339Z,101885.56
2022-10-05T22:36:04.686Z,101882.69
2022-10-05T22:38:27.602Z,101892.53
2022-10-05T22:40:49.712Z,101896.66
2022-10-05T22:43:12.876Z,101893.41
2022-10-05T22:45:34.900Z,101898.06
2022-10-05T22:47:56.811Z,101912.19
2022-10-05T22:50:18.815Z,101913.56
2022-10-05T22:52:41.431Z,101914.97
2022-10-05T22:55:03.590Z,101924.66
2022-10-05T22:57:25.327Z,101936.31
2022-10-05T22:59:47.087Z,101944.41
2022-10-05T23:02:09.271Z,101944.63
2022-10-05T23:04:31.116Z,101953.94
2022-10-05T23:06:52.875Z,101951.38
2022-10-05T23:09:14.879Z,101959.91
2022-10-05T23:11:36.634Z,101958.97
2022-10-05T23:13:59.899Z,101966.38
2022-10-05T23:16:25.851Z,101960.34
2022-10-05T23:18:50.464Z,101966.09
2022-10-05T23:21:12.230Z,101979.38
2022-10-05T23:23:38.343Z,101978.75
2022-10-05T23:26:01.898Z,101985.66
2022-10-05T23:28:23.772Z,101994.31
2022-10-05T23:30:45.804Z,101987.97
2022-10-05T23:33:07.683Z,102006.91
2022-10-05T23:35:29.539Z,102007.59
2022-10-05T23:37:51.393Z,102013.16
2022-10-05T23:40:14.353Z,102013.16
2022-10-05T23:42:36.147Z,102020.50
2022-10-05T23:44:57.966Z,102016.13
2022-10-05T23:47:19.708Z,102023.16
2022-10-05T23:49:41.457Z,102025.44
2022-10-05T23:52:03.379Z,102036.38
2022-10-05T23:54:25.089Z,102041.00
2022-10-05T23:56:46.901Z,102050.94
2022-10-05T23:59:08.673Z,102053.91
